Time;durP1;ratioP1;P1;durP2;ratioP2;P2;SDS_P1;SDS_P2;PMS_P1;PMS_P2;Temp;Humidity;BMP_temperature;BMP_pressure;BME280_temperature;BME280_humidity;BME280_pressure;Samples;Min_cycle;Max_cycle;Signal;HPM_P1;HPM_P2
2021/12/14 00:01:34;;;;;;;65.30;24.50;;;;;;;0.44;99.86;100493.58;104144;1314;22496;-27
2021/12/14 00:04:05;;;;;;;65.00;22.00;;;;;;;0.51;99.75;100491.33;104080;1314;22446;-30
2021/12/14 00:06:32;;;;;;;81.60;23.60;;;;;;;0.43;99.37;100491.15;103893;1313;24144;-31
2021/12/14 00:09:00;;;;;;;51.00;23.50;;;;;;;0.35;99.98;100492.27;103919;1313;22456;-31
2021/12/14 00:11:47;;;;;;;63.90;24.30;;;;;;;0.23;100.00;100492.68;104042;1313;24431;-31
2021/12/14 00:16:46;;;;;;;65.00;24.90;;;;;;;0.38;100.00;100494.52;104190;1316;24276;-32
2021/12/14 00:19:12;;;;;;;59.10;19.50;;;;;;;0.42;100.00;100490.52;104151;1314;24155;-31
2021/12/14 00:21:38;;;;;;;67.70;26.60;;;;;;;0.44;100.00;100491.07;104035;1314;24304;-31
2021/12/14 00:24:08;;;;;;;61.60;24.40;;;;;;;0.51;100.00;100487.59;104115;1316;24244;-26
2021/12/14 00:26:37;;;;;;;66.10;26.10;;;;;;;0.61;100.00;100486.72;103979;1314;22476;-26
2021/12/14 00:29:03;;;;;;;50.60;20.30;;;;;;;0.75;100.00;100481.55;104112;1314;22438;-27
2021/12/14 00:31:29;;;;;;;59.90;21.30;;;;;;;0.83;100.00;100477.96;104146;1315;24202;-31
2021/12/14 00:33:57;;;;;;;74.80;28.60;;;;;;;0.79;100.00;100475.07;103814;1317;22552;-26
2021/12/14 00:36:23;;;;;;;68.30;25.50;;;;;;;0.80;100.00;100478.15;104135;1315;24301;-32
2021/12/14 00:38:54;;;;;;;59.20;25.00;;;;;;;0.93;100.00;100475.66;103978;1314;22472;-32
2021/12/14 00:41:23;;;;;;;60.40;23.70;;;;;;;1.02;100.00;100475.24;104073;1315;22906;-31
2021/12/14 00:43:48;;;;;;;70.60;24.10;;;;;;;1.07;100.00;100477.20;104227;1314;24319;-29
2021/12/14 00:46:17;;;;;;;77.10;27.30;;;;;;;1.11;100.00;100476.73;104031;1311;22515;-26
2021/12/14 00:48:43;;;;;;;73.30;27.50;;;;;;;1.14;100.00;100475.94;104127;1313;24161;-31
2021/12/14 00:51:09;;;;;;;63.70;27.20;;;;;;;1.12;100.00;100480.52;104048;1314;22544;-26
2021/12/14 00:53:35;;;;;;;61.90;26.00;;;;;;;1.14;100.00;100481.77;103815;1316;24158;-28
2021/12/14 00:56:04;;;;;;;55.70;22.80;;;;;;;1.19;100.00;100478.95;103959;1314;22586;-26
2021/12/14 00:58:30;;;;;;;77.50;27.40;;;;;;;1.26;100.00;100480.55;104140;1315;24118;-32
2021/12/14 01:01:03;;;;;;;65.90;26.80;;;;;;;1.24;100.00;100486.57;103972;1313;24146;-32
2021/12/14 01:03:30;;;;;;;69.40;26.50;;;;;;;1.27;100.00;100488.94;103798;1315;24948;-26
2021/12/14 01:05:55;;;;;;;74.70;29.40;;;;;;;1.31;100.00;100488.50;104088;1313;24103;-27
2021/12/14 01:08:23;;;;;;;83.50;29.10;;;;;;;1.33;100.00;100489.08;103921;1314;22618;-26
2021/12/14 01:10:53;;;;;;;64.70;25.30;;;;;;;1.35;100.00;100486.98;104055;1314;24279;-32
2021/12/14 01:13:22;;;;;;;62.50;26.70;;;;;;;1.36;100.00;100483.39;104120;1315;24362;-32
2021/12/14 01:15:59;;;;;;;71.40;28.30;;;;;;;1.36;100.00;100483.85;103862;1314;24258;-32
2021/12/14 01:18:45;;;;;;;78.70;27.90;;;;;;;1.34;100.00;100482.79;104061;1314;22464;-26
2021/12/14 01:21:29;;;;;;;61.70;27.40;;;;;;;1.36;100.00;100485.10;104067;1314;22592;-26
2021/12/14 01:24:03;;;;;;;;;;;;;;;1.34;100.00;100482.77;104080;1316;24182;-26
2021/12/14 01:26:31;;;;;;;67.20;26.40;;;;;;;1.30;100.00;100483.11;104190;1314;24252;-27
2021/12/14 01:28:57;;;;;;;60.10;27.20;;;;;;;1.26;100.00;100481.83;103790;1314;22948;-26
2021/12/14 01:31:28;;;;;;;86.40;29.80;;;;;;;1.24;100.00;100481.23;103717;1314;22448;-31
2021/12/14 01:33:57;;;;;;;66.10;26.30;;;;;;;1.25;100.00;100479.08;103983;1314;22544;-26
2021/12/14 01:36:30;;;;;;;93.00;28.00;;;;;;;1.27;100.00;100482.46;103909;1314;22475;-26
2021/12/14 01:39:20;;;;;;;71.20;28.80;;;;;;;1.26;100.00;100484.95;104029;1307;22464;-31
2021/12/14 01:41:46;;;;;;;83.80;31.20;;;;;;;1.22;100.00;100481.52;103997;1314;22593;-26
2021/12/14 01:44:12;;;;;;;83.40;31.10;;;;;;;1.23;100.00;100481.30;104136;1314;22459;-31
2021/12/14 01:46:42;;;;;;;75.50;29.60;;;;;;;1.27;100.00;100484.55;104232;1315;24290;-27
2021/12/14 01:49:09;;;;;;;74.70;30.70;;;;;;;1.26;100.00;100485.52;104117;1315;25805;-32
2021/12/14 01:51:38;;;;;;;78.90;29.00;;;;;;;1.30;100.00;100489.09;104132;1314;22558;-26
2021/12/14 01:54:05;;;;;;;74.20;29.10;;;;;;;1.31;100.00;100486.86;104156;1304;22445;-26
2021/12/14 01:56:31;;;;;;;78.40;28.50;;;;;;;1.32;100.00;100485.94;104129;1310;24206;-31
2021/12/14 01:59:00;;;;;;;76.50;29.90;;;;;;;1.31;100.00;100487.23;104131;1316;22525;-31
2021/12/14 02:01:35;;;;;;;71.90;26.80;;;;;;;1.36;100.00;100484.11;103884;1315;24121;-31
2021/12/14 02:04:06;;;;;;;74.10;27.80;;;;;;;1.38;100.00;100480.38;103984;1313;22555;-31
2021/12/14 02:06:33;;;;;;;79.50;29.60;;;;;;;1.37;100.00;100485.20;103986;1316;22580;-31
2021/12/14 02:09:01;;;;;;;59.10;24.30;;;;;;;1.38;100.00;100484.46;104163;1307;22439;-26
2021/12/14 02:11:31;;;;;;;75.80;26.40;;;;;;;1.44;100.00;100483.34;104103;1314;24121;-26
2021/12/14 02:13:57;;;;;;;60.50;26.00;;;;;;;1.42;100.00;100478.91;104008;1313;22458;-27
2021/12/14 02:16:23;;;;;;;71.70;27.50;;;;;;;1.45;100.00;100475.33;104042;1310;24281;-31
2021/12/14 02:18:52;;;;;;;68.00;27.80;;;;;;;1.48;100.00;100473.21;104173;1308;24297;-28
2021/12/14 02:21:17;;;;;;;80.10;29.10;;;;;;;1.41;100.00;100469.92;104179;1314;22458;-31
2021/12/14 02:23:50;;;;;;;73.30;27.60;;;;;;;1.37;100.00;100472.18;104128;1308;22462;-30
2021/12/14 02:26:20;;;;;;;65.50;23.80;;;;;;;1.38;100.00;100473.84;104327;1310;22580;-26
2021/12/14 02:28:49;;;;;;;67.50;26.20;;;;;;;1.44;100.00;100477.33;104150;1310;22457;-26
2021/12/14 02:31:17;;;;;;;65.20;24.50;;;;;;;1.46;100.00;100473.17;104051;1314;24274;-26
2021/12/14 02:33:44;;;;;;;55.40;23.50;;;;;;;1.42;100.00;100470.79;104004;1314;22608;-32
2021/12/14 02:36:12;;;;;;;86.70;31.90;;;;;;;1.40;100.00;100468.28;104103;1314;22661;-26
2021/12/14 02:38:41;;;;;;;131.30;41.70;;;;;;;1.41;100.00;100459.21;104104;1314;22632;-32
2021/12/14 02:41:07;;;;;;;88.20;32.00;;;;;;;1.38;100.00;100455.69;103958;1314;22912;-26
2021/12/14 02:43:38;;;;;;;83.20;30.60;;;;;;;1.37;100.00;100456.49;103994;1314;22484;-31
2021/12/14 02:46:08;;;;;;;71.50;29.30;;;;;;;1.40;100.00;100461.52;104022;1310;24368;-32
2021/12/14 02:48:34;;;;;;;82.20;31.20;;;;;;;1.43;100.00;100462.21;104123;1304;22448;-31
2021/12/14 02:51:05;;;;;;;84.10;31.30;;;;;;;1.41;100.00;100461.52;103861;1314;22621;-32
2021/12/14 02:53:31;;;;;;;71.10;29.40;;;;;;;1.32;100.00;100454.89;104198;1310;24253;-31
2021/12/14 02:55:56;;;;;;;71.00;25.10;;;;;;;1.26;100.00;100451.23;104086;1314;24159;-27
2021/12/14 02:58:22;;;;;;;62.40;23.70;;;;;;;1.25;100.00;100449.25;104033;1314;24176;-26
2021/12/14 03:00:50;;;;;;;70.30;27.30;;;;;;;1.23;100.00;100455.39;103836;1314;22566;-31
2021/12/14 03:03:16;;;;;;;70.70;26.50;;;;;;;1.19;100.00;100453.00;103773;1314;24171;-26
2021/12/14 03:05:43;;;;;;;71.00;26.40;;;;;;;1.19;100.00;100456.73;104039;1302;22904;-30
2021/12/14 03:08:15;;;;;;;80.90;25.00;;;;;;;1.21;100.00;100458.85;104127;1310;23476;-26
2021/12/14 03:10:55;;;;;;;64.60;23.30;;;;;;;1.24;100.00;100458.46;103954;1307;22595;-31
2021/12/14 03:13:22;;;;;;;73.50;24.80;;;;;;;1.25;100.00;100453.26;104111;1313;22729;-27
2021/12/14 03:15:53;;;;;;;70.30;22.60;;;;;;;1.32;100.00;100451.87;103901;1310;22591;-26
2021/12/14 03:18:22;;;;;;;66.50;24.90;;;;;;;1.34;100.00;100444.85;104060;1315;22525;-31
2021/12/14 03:20:52;;;;;;;73.20;24.60;;;;;;;1.30;100.00;100448.53;104080;1314;23904;-31
2021/12/14 03:23:21;;;;;;;64.60;25.30;;;;;;;1.28;100.00;100448.13;103962;1314;23849;-31
2021/12/14 03:25:49;;;;;;;78.10;27.50;;;;;;;1.29;100.00;100450.32;104136;1316;22660;-31
2021/12/14 03:28:16;;;;;;;66.50;32.20;;;;;;;1.22;100.00;100449.28;104080;1316;22551;-31
2021/12/14 03:30:52;;;;;;;61.00;22.30;;;;;;;1.19;100.00;100449.89;103991;1314;23888;-28
2021/12/14 03:33:22;;;;;;;59.60;24.00;;;;;;;1.14;100.00;100449.14;103840;1314;24280;-27
2021/12/14 03:35:55;;;;;;;44.70;18.00;;;;;;;1.12;100.00;100456.92;104106;1315;24165;-31
2021/12/14 03:38:22;;;;;;;46.60;20.10;;;;;;;1.17;100.00;100455.61;104236;1314;23862;-31
2021/12/14 03:40:56;;;;;;;66.10;23.60;;;;;;;1.18;100.00;100457.31;104150;1314;24326;-31
2021/12/14 03:43:22;;;;;;;;;;;;;;;1.20;100.00;100457.92;103985;1315;22683;-26
2021/12/14 03:45:48;;;;;;;47.20;19.10;;;;;;;1.28;100.00;100449.90;104129;1314;22458;-31
2021/12/14 03:48:14;;;;;;;56.60;22.30;;;;;;;1.36;100.00;100452.50;104101;1314;22439;-31
2021/12/14 03:50:41;;;;;;;74.60;24.00;;;;;;;1.34;100.00;100456.52;103945;1313;22442;-26
2021/12/14 03:53:09;;;;;;;69.60;25.30;;;;;;;1.38;100.00;100454.46;104164;1310;22553;-27
2021/12/14 03:55:39;;;;;;;50.20;21.50;;;;;;;1.39;100.00;100454.73;104295;1305;22544;-26
2021/12/14 03:58:08;;;;;;;50.40;22.50;;;;;;;1.38;100.00;100455.70;103661;1314;682065;-26
2021/12/14 04:00:38;;;;;;;65.20;24.70;;;;;;;1.40;100.00;100457.50;104038;1314;24099;-26
2021/12/14 04:03:06;;;;;;;55.70;22.20;;;;;;;1.37;100.00;100454.52;103877;1306;22432;-32
2021/12/14 04:05:34;;;;;;;48.70;21.10;;;;;;;1.30;100.00;100457.36;103892;1314;24199;-31
2021/12/14 04:08:00;;;;;;;87.90;28.30;;;;;;;1.34;100.00;100454.04;104176;1313;22526;-31
2021/12/14 04:10:29;;;;;;;74.40;24.20;;;;;;;1.40;100.00;100451.31;103928;1308;24322;-26
2021/12/14 04:12:55;;;;;;;53.50;22.10;;;;;;;1.41;100.00;100449.33;104062;1310;24256;-31
2021/12/14 04:15:22;;;;;;;55.50;22.30;;;;;;;1.46;100.00;100443.67;104101;1311;22465;-26
2021/12/14 04:17:48;;;;;;;55.10;21.10;;;;;;;1.46;100.00;100444.56;104100;1313;24272;-27
2021/12/14 04:20:17;;;;;;;50.00;20.70;;;;;;;1.43;100.00;100442.51;103810;1310;24342;-31
2021/12/14 04:22:48;;;;;;;57.20;21.90;;;;;;;1.38;100.00;100443.16;104012;1313;23773;-31
2021/12/14 04:25:16;;;;;;;50.70;20.90;;;;;;;1.34;100.00;100443.77;104102;1314;22566;-26
2021/12/14 04:27:43;;;;;;;44.80;18.60;;;;;;;1.40;100.00;100452.18;104043;1314;24162;-31
2021/12/14 04:30:10;;;;;;;48.60;19.60;;;;;;;1.41;100.00;100453.02;104173;1311;24234;-27
2021/12/14 04:32:36;;;;;;;46.70;19.40;;;;;;;1.29;100.00;100448.96;104064;1314;24156;-27
2021/12/14 04:35:05;;;;;;;49.10;19.20;;;;;;;1.30;100.00;100441.86;103811;1308;22537;-31
2021/12/14 04:37:36;;;;;;;43.00;17.20;;;;;;;1.22;100.00;100440.45;103961;1314;24251;-31
2021/12/14 04:52:38;;;;;;;37.60;17.20;;;;;;;1.20;100.00;100444.34;104097;1314;24129;-26
2021/12/14 04:55:07;;;;;;;47.90;18.10;;;;;;;1.24;100.00;100443.34;104156;1314;22443;-31
2021/12/14 04:57:37;;;;;;;40.80;16.60;;;;;;;1.30;100.00;100435.81;104115;1314;24150;-26
2021/12/14 05:00:09;;;;;;;36.00;17.40;;;;;;;1.38;100.00;100434.36;104155;1315;22664;-27
2021/12/14 05:02:35;;;;;;;44.00;17.30;;;;;;;1.45;100.00;100435.97;104110;1314;22778;-31
2021/12/14 05:05:01;;;;;;;38.90;16.60;;;;;;;1.48;100.00;100437.69;104026;1307;24122;-31
2021/12/14 05:09:53;;;;;;;41.10;17.80;;;;;;;1.43;100.00;100438.96;104047;1314;22463;-31
2021/12/14 05:12:21;;;;;;;47.30;16.50;;;;;;;1.38;100.00;100438.05;104012;1314;22598;-26
2021/12/14 05:14:47;;;;;;;41.20;15.90;;;;;;;1.41;100.00;100438.76;104179;1307;24027;-27
2021/12/14 05:17:17;;;;;;;42.80;14.70;;;;;;;1.43;100.00;100438.74;104137;1304;24355;-31
2021/12/14 05:19:44;;;;;;;26.30;12.50;;;;;;;1.42;100.00;100442.38;104135;1304;24172;-31
2021/12/14 05:22:13;;;;;;;32.50;15.30;;;;;;;1.46;100.00;100440.63;104253;1310;24117;-31
2021/12/14 05:24:41;;;;;;;39.60;14.60;;;;;;;1.43;100.00;100440.55;104139;1310;24162;-26
2021/12/14 05:27:11;;;;;;;33.40;12.90;;;;;;;1.46;100.00;100435.39;104143;1310;24169;-26
2021/12/14 05:29:39;;;;;;;37.40;15.00;;;;;;;1.45;100.00;100434.19;104095;1314;24230;-26
2021/12/14 05:32:07;;;;;;;38.60;14.40;;;;;;;1.47;100.00;100436.19;104076;1314;24240;-26
2021/12/14 05:34:33;;;;;;;28.20;13.10;;;;;;;1.41;100.00;100430.95;104011;1307;22569;-27
2021/12/14 05:36:59;;;;;;;32.30;11.10;;;;;;;1.45;100.00;100427.35;104081;1314;24173;-29
2021/12/14 05:39:46;;;;;;;37.80;13.60;;;;;;;1.45;100.00;100432.09;103959;1311;25281;-26
2021/12/14 05:44:43;;;;;;;36.00;11.80;;;;;;;1.54;100.00;100428.23;103863;1313;22476;-31
2021/12/14 05:47:11;;;;;;;28.40;14.30;;;;;;;1.59;100.00;100430.66;103916;1314;22450;-26
2021/12/14 05:49:39;;;;;;;24.30;12.90;;;;;;;1.67;100.00;100424.67;104181;1311;24359;-31
2021/12/14 05:52:08;;;;;;;40.60;15.70;;;;;;;1.67;100.00;100420.41;104184;1313;24292;-26
2021/12/14 05:54:35;;;;;;;51.50;18.30;;;;;;;1.67;100.00;100422.55;104132;1314;22795;-26
2021/12/14 05:57:02;;;;;;;39.30;16.30;;;;;;;1.56;100.00;100419.45;104036;1313;22496;-26
2021/12/14 05:59:30;;;;;;;42.00;16.00;;;;;;;1.51;100.00;100423.67;104011;1314;24239;-31
2021/12/14 06:01:56;;;;;;;37.30;16.00;;;;;;;1.51;100.00;100424.41;103809;1314;22793;-26
2021/12/14 06:04:25;;;;;;;34.20;15.90;;;;;;;1.45;100.00;100424.85;104068;1314;22797;-28
2021/12/14 06:06:52;;;;;;;40.50;17.70;;;;;;;1.49;100.00;100425.27;104095;1314;24207;-31
2021/12/14 06:09:23;;;;;;;40.70;16.20;;;;;;;1.46;100.00;100421.80;104065;1314;24122;-26
2021/12/14 06:11:52;;;;;;;36.00;13.90;;;;;;;1.46;100.00;100425.31;103978;1313;24149;-31
2021/12/14 06:14:20;;;;;;;36.70;15.20;;;;;;;1.47;100.00;100428.79;103854;1314;24168;-26
2021/12/14 06:16:47;;;;;;;37.70;15.50;;;;;;;1.54;100.00;100428.05;104156;1310;22487;-26
2021/12/14 06:19:17;;;;;;;34.80;15.90;;;;;;;1.52;100.00;100426.77;104045;1305;22513;-31
2021/12/14 06:21:44;;;;;;;32.50;13.70;;;;;;;1.63;100.00;100426.35;104087;1313;22836;-26
2021/12/14 06:24:10;;;;;;;41.30;14.40;;;;;;;1.60;100.00;100420.69;104195;1307;24202;-27
2021/12/14 06:26:38;;;;;;;33.60;14.30;;;;;;;1.60;100.00;100424.56;104033;1314;22775;-31
2021/12/14 06:29:07;;;;;;;34.40;16.80;;;;;;;1.64;100.00;100423.64;103955;1311;22580;-26
2021/12/14 06:31:32;;;;;;;44.20;17.20;;;;;;;1.65;100.00;100425.52;104101;1311;24167;-31
2021/12/14 06:34:10;;;;;;;34.10;15.80;;;;;;;1.69;100.00;100419.92;103980;1314;22471;-26
2021/12/14 06:37:04;;;;;;;39.70;16.20;;;;;;;1.64;100.00;100419.52;104063;1314;22739;-26
2021/12/14 06:39:31;;;;;;;36.70;16.00;;;;;;;1.64;100.00;100417.09;104056;1313;22512;-26
2021/12/14 06:42:04;;;;;;;38.80;15.20;;;;;;;1.68;100.00;100413.92;103994;1310;24199;-31
2021/12/14 06:44:29;;;;;;;47.80;16.40;;;;;;;1.66;100.00;100416.98;103890;1315;22783;-31
2021/12/14 06:46:55;;;;;;;41.40;15.90;;;;;;;1.72;100.00;100417.08;104010;1313;24159;-27
2021/12/14 06:49:21;;;;;;;54.00;19.30;;;;;;;1.76;100.00;100422.00;103994;1313;24136;-30
2021/12/14 06:51:49;;;;;;;46.70;16.30;;;;;;;1.71;100.00;100423.44;103934;1314;22446;-26
2021/12/14 06:54:17;;;;;;;40.90;14.50;;;;;;;1.65;100.00;100423.52;104144;1315;22737;-26
2021/12/14 06:56:46;;;;;;;46.00;17.10;;;;;;;1.73;100.00;100422.04;104047;1307;22461;-31
2021/12/14 06:59:13;;;;;;;59.50;19.00;;;;;;;1.65;100.00;100423.50;103893;1314;24196;-31
2021/12/14 07:01:40;;;;;;;46.50;17.60;;;;;;;1.65;100.00;100423.86;104112;1314;22621;-31
2021/12/14 07:04:09;;;;;;;52.10;20.10;;;;;;;1.69;100.00;100424.50;103916;1314;24335;-26
2021/12/14 07:06:36;;;;;;;43.20;16.80;;;;;;;1.60;100.00;100424.94;103943;1314;22782;-31
2021/12/14 07:09:08;;;;;;;63.60;17.90;;;;;;;1.64;100.00;100421.13;104091;1310;23077;-27
2021/12/14 07:11:34;;;;;;;51.10;16.90;;;;;;;1.68;100.00;100420.28;104129;1316;25291;-26
2021/12/14 07:14:00;;;;;;;42.40;16.80;;;;;;;1.73;100.00;100420.94;104109;1314;24637;-26
2021/12/14 07:16:31;;;;;;;47.50;18.60;;;;;;;1.71;100.00;100416.02;103949;1311;24146;-26
2021/12/14 07:19:01;;;;;;;57.20;19.20;;;;;;;1.81;100.00;100418.80;104089;1315;22498;-26
2021/12/14 07:21:35;;;;;;;60.50;20.70;;;;;;;1.83;100.00;100416.39;103869;1313;24133;-26
2021/12/14 07:24:11;;;;;;;67.20;25.90;;;;;;;1.91;100.00;100421.23;104090;1313;23238;-26
2021/12/14 07:26:37;;;;;;;83.30;29.70;;;;;;;1.95;100.00;100421.29;104226;1314;23908;-31
2021/12/14 07:29:03;;;;;;;84.80;28.80;;;;;;;1.81;100.00;100427.80;103874;1304;22462;-26
2021/12/14 07:31:29;;;;;;;76.70;28.10;;;;;;;1.78;100.00;100427.85;104015;1311;24275;-31
2021/12/14 07:33:57;;;;;;;90.90;29.70;;;;;;;1.87;100.00;100432.34;104160;1314;22465;-31
2021/12/14 07:36:24;;;;;;;84.20;27.50;;;;;;;1.90;100.00;100440.02;104222;1304;22937;-26
2021/12/14 07:38:52;;;;;;;87.60;24.00;;;;;;;1.85;100.00;100440.04;103915;1310;22727;-26
2021/12/14 07:41:23;;;;;;;100.40;28.80;;;;;;;1.89;100.00;100441.00;104233;1304;22466;-26
2021/12/14 07:43:49;;;;;;;92.50;27.90;;;;;;;1.92;100.00;100440.27;104244;1314;22706;-29
2021/12/14 07:46:20;;;;;;;101.60;28.40;;;;;;;1.89;100.00;100436.39;104191;1314;22574;-30
2021/12/14 07:48:48;;;;;;;87.70;26.80;;;;;;;1.89;100.00;100432.17;104108;1314;24113;-31
2021/12/14 07:51:15;;;;;;;83.50;24.50;;;;;;;1.97;100.00;100425.20;104149;1314;24118;-31
2021/12/14 07:53:45;;;;;;;94.70;25.30;;;;;;;2.05;100.00;100423.19;103838;1313;24274;-31
2021/12/14 07:56:18;;;;;;;81.50;25.00;;;;;;;2.06;100.00;100419.73;103963;1313;22475;-32
2021/12/14 07:58:47;;;;;;;88.40;22.40;;;;;;;2.14;100.00;100420.75;103936;1315;22586;-31
2021/12/14 08:01:14;;;;;;;81.70;24.80;;;;;;;2.21;100.00;100418.58;104107;1310;22446;-26
2021/12/14 08:03:42;;;;;;;89.00;25.60;;;;;;;2.22;100.00;100422.21;103994;1314;22460;-26
2021/12/14 08:06:12;;;;;;;103.50;30.40;;;;;;;2.30;100.00;100416.96;104291;1314;24254;-26
2021/12/14 08:13:44;;;;;;;75.80;21.20;;;;;;;2.23;100.00;100402.30;104199;1314;24181;-31
2021/12/14 08:16:10;;;;;;;75.90;24.60;;;;;;;2.29;100.00;100403.86;104236;1310;22890;-31
2021/12/14 08:18:36;;;;;;;80.90;22.90;;;;;;;2.39;100.00;100406.06;104188;1314;24188;-26
2021/12/14 08:21:04;;;;;;;83.60;22.20;;;;;;;2.46;100.00;100410.98;104239;1312;22791;-26
2021/12/14 08:23:30;;;;;;;70.70;23.50;;;;;;;2.51;100.00;100406.89;104124;1314;22453;-27
2021/12/14 08:25:59;;;;;;;69.70;21.60;;;;;;;2.59;100.00;100406.29;104044;1314;24288;-31
2021/12/14 08:28:25;;;;;;;79.80;24.60;;;;;;;2.60;100.00;100412.58;104029;1314;22454;-31
2021/12/14 08:30:54;;;;;;;71.90;22.80;;;;;;;2.70;100.00;100415.10;104226;1313;22730;-26
2021/12/14 08:33:22;;;;;;;61.80;21.80;;;;;;;2.55;100.00;100423.89;103887;1314;24133;-26
2021/12/14 08:35:49;;;;;;;72.10;23.00;;;;;;;2.56;100.00;100421.52;103860;1313;22484;-26
2021/12/14 08:38:16;;;;;;;54.90;20.10;;;;;;;2.63;100.00;100422.92;104150;1313;22830;-31
2021/12/14 08:40:46;;;;;;;64.00;20.80;;;;;;;2.58;100.00;100427.05;104104;1314;25948;-26
2021/12/14 08:43:21;;;;;;;58.30;19.10;;;;;;;2.67;100.00;100431.29;103962;1314;24218;-26
2021/12/14 08:45:51;;;;;;;65.30;21.10;;;;;;;2.76;100.00;100425.27;103858;1311;24037;-31
2021/12/14 08:48:22;;;;;;;63.40;21.50;;;;;;;2.78;100.00;100418.70;104129;1305;22835;-31
2021/12/14 08:50:54;;;;;;;75.20;23.60;;;;;;;2.81;100.00;100412.29;104134;1313;22619;-27
2021/12/14 08:53:21;;;;;;;71.20;24.00;;;;;;;2.76;100.00;100413.02;104070;1305;24132;-26
2021/12/14 08:55:49;;;;;;;70.40;21.10;;;;;;;2.78;100.00;100417.30;104025;1314;22464;-30
2021/12/14 08:58:15;;;;;;;70.20;21.40;;;;;;;2.85;100.00;100418.72;104167;1314;24135;-31
2021/12/14 09:00:45;;;;;;;54.60;21.40;;;;;;;2.79;100.00;100418.15;104088;1304;22528;-31
2021/12/14 09:03:12;;;;;;;64.80;19.80;;;;;;;2.82;100.00;100412.55;103913;1310;22541;-31
2021/12/14 09:05:42;;;;;;;60.00;25.00;;;;;;;2.77;100.00;100411.36;104387;1314;22482;-31
2021/12/14 09:08:08;;;;;;;55.60;17.10;;;;;;;2.76;100.00;100411.95;104293;1314;22772;-31
2021/12/14 09:10:37;;;;;;;59.40;23.50;;;;;;;2.85;100.00;100411.80;104076;1314;22561;-31
2021/12/14 09:13:05;;;;;;;46.70;15.30;;;;;;;2.87;100.00;100410.93;104251;1313;22467;-26
2021/12/14 09:15:38;;;;;;;48.50;16.40;;;;;;;2.83;100.00;100403.36;104073;1310;22475;-26
2021/12/14 09:18:04;;;;;;;50.80;19.40;;;;;;;2.93;100.00;100405.90;103946;1314;22788;-31
2021/12/14 09:20:33;;;;;;;48.70;17.10;;;;;;;2.95;100.00;100400.91;104114;1314;24086;-31
2021/12/14 09:23:04;;;;;;;46.40;16.60;;;;;;;2.88;100.00;100393.55;104078;1314;22730;-31
2021/12/14 09:25:30;;;;;;;37.10;14.50;;;;;;;2.92;100.00;100394.64;104236;1311;22520;-31
2021/12/14 09:27:57;;;;;;;50.40;18.20;;;;;;;2.89;100.00;100399.52;103860;1314;24283;-26
2021/12/14 09:30:25;;;;;;;43.50;14.50;;;;;;;2.83;100.00;100405.80;104050;1302;22439;-31
2021/12/14 09:32:51;;;;;;;48.40;15.80;;;;;;;3.23;99.55;100405.79;104262;1313;24183;-31
2021/12/14 09:35:19;;;;;;;37.20;14.40;;;;;;;3.14;97.11;100410.70;104079;1314;24053;-28
2021/12/14 09:37:47;;;;;;;39.50;16.40;;;;;;;2.82;98.12;100400.71;104106;1314;24238;-26
2021/12/14 09:40:19;;;;;;;40.00;14.70;;;;;;;2.68;99.65;100397.95;104113;1313;24144;-26
2021/12/14 09:42:45;;;;;;;58.20;13.80;;;;;;;2.77;99.77;100394.72;104186;1314;24297;-28
2021/12/14 09:45:15;;;;;;;42.80;14.00;;;;;;;2.78;100.00;100387.58;103864;1314;22462;-31
2021/12/14 09:47:41;;;;;;;38.10;14.10;;;;;;;2.85;100.00;100386.73;103921;1310;22492;-31
2021/12/14 09:50:12;;;;;;;31.50;11.80;;;;;;;2.89;100.00;100386.39;104075;1311;24241;-26
2021/12/14 09:52:39;;;;;;;42.60;13.70;;;;;;;3.01;100.00;100385.77;103965;1314;22442;-26
2021/12/14 09:55:08;;;;;;;28.40;12.60;;;;;;;3.06;99.99;100383.57;104160;1314;22521;-31
2021/12/14 09:57:38;;;;;;;42.10;12.90;;;;;;;3.06;100.00;100376.18;104012;1313;22483;-31
2021/12/14 10:00:09;;;;;;;36.80;14.80;;;;;;;3.12;100.00;100366.98;103866;1314;26008;-31
2021/12/14 10:02:37;;;;;;;39.50;12.60;;;;;;;3.17;100.00;100365.89;104110;1314;22832;-26
2021/12/14 10:05:08;;;;;;;30.10;12.90;;;;;;;3.31;100.00;100361.25;104176;1308;22445;-27
2021/12/14 10:07:34;;;;;;;42.40;17.50;;;;;;;3.29;100.00;100362.06;104074;1314;24172;-31
2021/12/14 10:10:00;;;;;;;34.40;14.00;;;;;;;3.25;100.00;100362.54;103821;1313;22474;-26
2021/12/14 10:15:01;;;;;;;50.70;15.60;;;;;;;3.22;100.00;100362.84;104096;1313;24985;-30
2021/12/14 10:17:27;;;;;;;42.30;15.10;;;;;;;3.37;100.00;100362.44;104178;1314;24132;-39
2021/12/14 10:19:53;;;;;;;34.10;15.50;;;;;;;3.37;100.00;100356.77;103914;1308;22586;-31
2021/12/14 10:22:23;;;;;;;30.50;13.20;;;;;;;3.38;100.00;100354.26;104023;1314;24106;-27
2021/12/14 10:24:52;;;;;;;37.40;13.00;;;;;;;3.32;100.00;100352.84;104091;1302;22439;-31
2021/12/14 10:27:19;;;;;;;32.20;13.10;;;;;;;3.52;100.00;100351.89;103948;1314;24136;-26
2021/12/14 10:29:45;;;;;;;45.20;16.00;;;;;;;3.53;100.00;100348.91;103975;1304;24208;-26
2021/12/14 10:32:16;;;;;;;32.90;14.30;;;;;;;3.63;100.00;100347.77;104222;1313;24250;-26
2021/12/14 10:34:46;;;;;;;32.60;14.80;;;;;;;3.69;100.00;100348.25;103980;1314;24260;-26
2021/12/14 10:37:21;;;;;;;30.90;13.90;;;;;;;3.66;100.00;100346.80;104043;1314;22574;-31
2021/12/14 10:44:48;;;;;;;36.70;14.90;;;;;;;3.83;100.00;100349.23;104021;1313;24313;-27
2021/12/14 10:47:16;;;;;;;39.00;15.60;;;;;;;4.02;100.00;100353.13;104076;1314;24383;-31
2021/12/14 10:49:41;;;;;;;33.50;13.40;;;;;;;4.07;100.00;100350.25;104034;1314;24148;-31
2021/12/14 10:52:14;;;;;;;41.40;15.40;;;;;;;3.99;100.00;100351.04;104100;1306;24234;-27
2021/12/14 10:54:42;;;;;;;25.30;13.20;;;;;;;3.93;99.99;100352.83;103821;1314;25266;-31
2021/12/14 10:57:12;;;;;;;24.80;11.00;;;;;;;3.94;100.00;100353.27;103804;1314;22550;-31
2021/12/14 10:59:40;;;;;;;27.40;13.00;;;;;;;4.05;100.00;100352.70;104091;1314;24176;-31
2021/12/14 11:02:06;;;;;;;32.60;14.30;;;;;;;4.16;99.99;100354.04;104128;1313;22723;-31
2021/12/14 11:04:37;;;;;;;30.90;13.20;;;;;;;4.06;99.76;100355.58;104083;1313;24134;-31
2021/12/14 11:07:10;;;;;;;32.80;14.20;;;;;;;4.06;99.18;100355.81;103998;1313;24311;-31
2021/12/14 11:09:40;;;;;;;32.50;15.50;;;;;;;3.91;99.91;100348.17;104078;1316;24248;-31
2021/12/14 11:12:09;;;;;;;38.50;14.30;;;;;;;3.91;100.00;100344.08;104125;1314;24248;-31
2021/12/14 11:14:37;;;;;;;26.70;12.50;;;;;;;3.91;100.00;100344.34;103921;1314;22445;-31
2021/12/14 11:19:41;;;;;;;24.90;12.50;;;;;;;3.94;100.00;100340.69;103810;1316;24238;-31
2021/12/14 11:22:08;;;;;;;34.50;11.90;;;;;;;3.87;100.00;100338.96;104067;1310;24200;-26
2021/12/14 11:24:34;;;;;;;29.40;11.20;;;;;;;3.89;100.00;100337.91;103960;1313;24146;-27
2021/12/14 11:27:11;;;;;;;28.50;12.00;;;;;;;3.96;100.00;100332.92;103839;1314;22586;-26
2021/12/14 11:29:37;;;;;;;32.00;14.30;;;;;;;3.99;100.00;100330.68;103999;1314;24133;-26
2021/12/14 11:32:03;;;;;;;49.70;16.00;;;;;;;3.92;99.87;100329.33;103733;1314;22576;-30
2021/12/14 11:34:34;;;;;;;40.30;13.80;;;;;;;3.85;99.97;100320.59;104145;1314;23854;-31
2021/12/14 11:37:05;;;;;;;42.40;14.80;;;;;;;3.80;99.98;100319.58;104085;1314;22558;-31
2021/12/14 11:39:36;;;;;;;54.90;22.70;;;;;;;3.73;99.93;100319.27;103997;1308;22651;-26
2021/12/14 11:42:07;;;;;;;38.10;15.00;;;;;;;3.72;99.99;100321.13;104122;1312;25951;-26
2021/12/14 11:44:35;;;;;;;46.30;17.20;;;;;;;3.65;99.97;100322.75;104070;1310;24314;-26